createdAt,value
2022-12-19T00:00:49.659Z,40.52
2022-12-19T00:03:16.004Z,41.99
2022-12-19T00:05:42.371Z,39.74
2022-12-19T00:08:17.147Z,40.14
2022-12-19T00:10:44.169Z,38.70
2022-12-19T00:13:10.449Z,38.50
2022-12-19T00:15:36.687Z,38.33
2022-12-19T00:18:02.995Z,38.22
2022-12-19T00:20:29.284Z,37.87
2022-12-19T00:22:55.596Z,38.75
2022-12-19T00:25:21.852Z,40.03
2022-12-19T00:27:48.251Z,39.32
2022-12-19T00:30:14.550Z,39.04
2022-12-19T00:32:41.230Z,38.57
2022-12-19T00:35:07.489Z,39.24
2022-12-19T00:37:33.744Z,42.83
2022-12-19T00:39:59.983Z,44.48
2022-12-19T00:42:26.213Z,45.99
2022-12-19T00:44:52.500Z,45.29
2022-12-19T00:47:18.761Z,44.27
2022-12-19T00:49:44.987Z,43.44
2022-12-19T00:52:12.649Z,43.77
2022-12-19T00:54:38.980Z,41.67
2022-12-19T00:57:05.783Z,44.45
2022-12-19T00:59:32.091Z,45.10
2022-12-19T01:01:58.520Z,45.27
2022-12-19T01:04:29.200Z,44.14
2022-12-19T01:06:57.856Z,43.52
2022-12-19T01:09:29.117Z,44.19
2022-12-19T01:11:55.406Z,44.04
2022-12-19T01:14:23.257Z,43.84
2022-12-19T01:16:49.808Z,45.18
2022-12-19T01:19:16.096Z,44.91
2022-12-19T01:21:42.378Z,43.10
2022-12-19T01:24:09.238Z,42.00
2022-12-19T01:26:35.449Z,42.46
2022-12-19T01:29:01.909Z,40.85
2022-12-19T01:31:28.256Z,40.50
2022-12-19T01:33:54.622Z,42.73
2022-12-19T01:36:20.894Z,42.46
2022-12-19T01:38:48.195Z,42.88
2022-12-19T01:41:14.609Z,42.12
2022-12-19T01:43:40.853Z,40.90
2022-12-19T01:46:09.483Z,39.70
2022-12-19T01:48:35.787Z,39.08
2022-12-19T01:51:02.720Z,38.67
2022-12-19T01:53:29.064Z,38.99
2022-12-19T01:55:55.294Z,39.15
2022-12-19T01:58:21.478Z,40.04
2022-12-19T02:00:47.752Z,39.74
2022-12-19T02:03:14.110Z,40.80
2022-12-19T02:05:40.410Z,40.99
2022-12-19T02:08:06.667Z,42.86
2022-12-19T02:10:32.981Z,42.00
2022-12-19T02:12:59.255Z,41.97
2022-12-19T02:15:25.499Z,42.44
2022-12-19T02:17:52.743Z,40.06
2022-12-19T02:20:19.195Z,40.98
2022-12-19T02:22:45.454Z,41.00
2022-12-19T02:25:11.685Z,39.97
2022-12-19T02:27:40.289Z,40.55
2022-12-19T02:30:06.934Z,39.72
2022-12-19T02:32:33.191Z,41.91
2022-12-19T02:35:02.477Z,43.19
2022-12-19T02:37:28.772Z,44.55
2022-12-19T02:39:55.294Z,43.37
2022-12-19T02:42:21.592Z,41.65
2022-12-19T02:44:48.615Z,41.08
2022-12-19T02:47:14.859Z,43.20
2022-12-19T02:49:41.173Z,43.97
2022-12-19T02:52:07.496Z,44.67
2022-12-19T02:54:33.762Z,43.90
2022-12-19T02:57:00.059Z,43.23
2022-12-19T02:59:26.360Z,42.44
2022-12-19T03:01:52.682Z,40.07
2022-12-19T03:04:19.055Z,41.87
2022-12-19T03:06:45.374Z,43.27
2022-12-19T03:09:13.425Z,43.38
2022-12-19T03:11:39.734Z,43.74
2022-12-19T03:14:06.024Z,43.46
2022-12-19T03:16:32.268Z,42.24
2022-12-19T03:18:58.598Z,42.49
2022-12-19T03:21:24.875Z,44.63
2022-12-19T03:23:51.139Z,44.56
2022-12-19T03:26:17.373Z,43.91
2022-12-19T03:28:43.644Z,44.17
2022-12-19T03:31:09.996Z,44.86
2022-12-19T03:33:36.406Z,45.29
2022-12-19T03:36:02.639Z,45.66
2022-12-19T03:38:28.871Z,45.16
2022-12-19T03:40:55.150Z,46.15
2022-12-19T03:43:21.459Z,44.88
2022-12-19T03:45:47.913Z,45.06
2022-12-19T03:48:14.398Z,45.00
2022-12-19T03:50:40.653Z,46.20
2022-12-19T03:53:06.899Z,44.97
2022-12-19T03:55:33.234Z,46.25
2022-12-19T03:57:59.488Z,44.38
2022-12-19T04:00:27.384Z,44.89
2022-12-19T04:02:53.701Z,45.52
2022-12-19T04:05:19.998Z,42.57
2022-12-19T04:07:46.252Z,44.03
2022-12-19T04:10:12.563Z,45.70
2022-12-19T04:12:58.830Z,46.40
2022-12-19T04:15:34.554Z,44.98
2022-12-19T04:18:01.458Z,44.59
2022-12-19T04:20:27.709Z,43.39
2022-12-19T04:22:54.128Z,43.44
2022-12-19T04:25:21.555Z,43.48
2022-12-19T04:27:50.265Z,44.21
2022-12-19T04:30:16.581Z,43.39
2022-12-19T04:32:42.867Z,43.92
2022-12-19T04:35:09.095Z,42.93
2022-12-19T04:37:35.353Z,43.57
2022-12-19T04:40:01.602Z,43.22
2022-12-19T04:42:27.834Z,43.17
2022-12-19T04:44:54.151Z,43.20
2022-12-19T04:47:20.398Z,41.70
2022-12-19T04:49:46.645Z,42.77
2022-12-19T04:52:12.930Z,41.38
2022-12-19T04:54:39.210Z,42.15
2022-12-19T04:57:05.493Z,42.48
2022-12-19T04:59:34.092Z,42.75
2022-12-19T05:02:00.437Z,40.95
2022-12-19T05:04:26.842Z,42.35
2022-12-19T05:06:53.616Z,42.80
2022-12-19T05:09:19.855Z,42.01
2022-12-19T05:11:46.194Z,40.64
2022-12-19T05:14:12.497Z,40.05
2022-12-19T05:16:38.788Z,39.81
2022-12-19T05:19:05.082Z,38.81
2022-12-19T05:21:31.319Z,39.62
2022-12-19T05:23:57.545Z,41.03
2022-12-19T05:26:23.846Z,41.26
2022-12-19T05:28:50.138Z,40.72
2022-12-19T05:31:16.462Z,40.37
2022-12-19T05:33:42.847Z,41.00
2022-12-19T05:36:09.134Z,40.49
2022-12-19T05:38:35.382Z,40.92
2022-12-19T05:41:01.699Z,42.08
2022-12-19T05:43:27.970Z,42.71
2022-12-19T05:45:54.203Z,43.27
2022-12-19T05:48:20.473Z,43.21
2022-12-19T05:50:46.740Z,43.13
2022-12-19T05:53:12.965Z,44.22
2022-12-19T05:55:39.359Z,42.50
2022-12-19T05:58:05.616Z,43.23
2022-12-19T06:00:31.852Z,42.98
2022-12-19T06:02:58.259Z,43.19
2022-12-19T06:05:24.581Z,44.61
2022-12-19T06:07:50.878Z,44.97
2022-12-19T06:10:17.160Z,44.79
2022-12-19T06:12:43.415Z,45.61
2022-12-19T06:15:09.647Z,46.57
2022-12-19T06:17:35.906Z,46.64
2022-12-19T06:20:02.154Z,45.81
2022-12-19T06:22:28.398Z,45.53
2022-12-19T06:24:54.635Z,46.15
2022-12-19T06:27:20.863Z,46.02
2022-12-19T06:29:47.109Z,43.71
2022-12-19T06:32:13.362Z,44.16
2022-12-19T06:35:03.292Z,44.51
2022-12-19T06:37:25.832Z,44.10
2022-12-19T06:39:52.095Z,44.36
2022-12-19T06:42:18.332Z,42.92
2022-12-19T06:44:44.603Z,42.95
2022-12-19T06:47:10.859Z,42.81
2022-12-19T06:49:37.219Z,44.02
2022-12-19T06:52:08.890Z,44.55
2022-12-19T06:54:35.529Z,45.23
2022-12-19T06:57:01.805Z,45.69
2022-12-19T06:59:28.133Z,44.14
2022-12-19T07:01:54.673Z,44.84
2022-12-19T07:04:21.007Z,45.72
2022-12-19T07:06:49.267Z,46.27
2022-12-19T07:09:15.814Z,47.79
2022-12-19T07:11:42.081Z,46.53
2022-12-19T07:14:10.199Z,47.00
2022-12-19T07:16:37.138Z,47.85
2022-12-19T07:19:03.484Z,47.35
2022-12-19T07:21:29.761Z,47.02
2022-12-19T07:23:56.085Z,46.53
2022-12-19T07:26:22.397Z,45.29
2022-12-19T07:28:48.652Z,45.68
2022-12-19T07:31:14.983Z,45.22
2022-12-19T07:33:41.265Z,45.27
2022-12-19T07:36:07.519Z,45.77
2022-12-19T07:38:33.780Z,45.26
2022-12-19T07:41:00.107Z,43.45
2022-12-19T07:43:26.385Z,44.03
2022-12-19T07:45:52.755Z,43.72
2022-12-19T07:48:19.007Z,43.62
2022-12-19T07:50:45.279Z,44.28
2022-12-19T07:53:11.527Z,44.00
2022-12-19T07:55:37.894Z,44.90
2022-12-19T07:58:04.232Z,46.36
2022-12-19T08:00:30.561Z,47.01
2022-12-19T08:02:57.057Z,46.89
2022-12-19T08:05:23.437Z,47.11
2022-12-19T08:07:49.871Z,47.70
2022-12-19T08:10:16.147Z,48.16
2022-12-19T08:12:42.460Z,47.29
2022-12-19T08:15:08.737Z,46.93
2022-12-19T08:17:35.827Z,46.32
2022-12-19T08:20:02.118Z,45.42
2022-12-19T08:22:28.996Z,45.78
2022-12-19T08:24:55.277Z,44.93
2022-12-19T08:27:21.508Z,44.46
2022-12-19T08:29:47.792Z,43.77
2022-12-19T08:32:20.186Z,45.64
2022-12-19T08:34:47.318Z,45.22
2022-12-19T08:37:13.606Z,44.62
2022-12-19T08:39:39.872Z,43.83
2022-12-19T08:42:06.167Z,43.71
2022-12-19T08:44:32.400Z,43.47
2022-12-19T08:46:58.651Z,44.54
2022-12-19T08:49:24.903Z,45.42
2022-12-19T08:51:51.259Z,45.63
2022-12-19T08:54:17.527Z,45.46
2022-12-19T08:56:46.504Z,44.31
2022-12-19T08:59:13.376Z,45.73
2022-12-19T09:01:41.369Z,45.41
2022-12-19T09:05:56.233Z,44.14
2022-12-19T09:06:53.987Z,43.88
2022-12-19T09:09:20.282Z,43.53
2022-12-19T09:11:47.947Z,44.03
2022-12-19T09:14:14.711Z,44.28
2022-12-19T09:16:46.734Z,44.03
2022-12-19T09:19:12.993Z,45.09
2022-12-19T09:21:39.332Z,44.71
2022-12-19T09:24:08.090Z,44.55
2022-12-19T09:26:34.536Z,44.42
2022-12-19T09:29:00.904Z,43.46
2022-12-19T09:31:28.643Z,44.16
2022-12-19T09:33:54.913Z,44.35
2022-12-19T09:36:21.189Z,43.75
2022-12-19T09:38:47.435Z,43.49
2022-12-19T09:41:13.709Z,42.99
2022-12-19T09:43:42.077Z,41.34
2022-12-19T09:46:08.459Z,41.06
2022-12-19T09:48:34.754Z,42.18
2022-12-19T09:51:06.893Z,40.40
2022-12-19T09:53:36.997Z,41.84
2022-12-19T09:56:03.285Z,41.61
2022-12-19T09:58:29.827Z,42.40
2022-12-19T10:00:59.799Z,42.53
2022-12-19T10:03:26.874Z,42.35
2022-12-19T10:06:57.684Z,42.59
2022-12-19T10:09:00.718Z,43.27
2022-12-19T10:12:38.589Z,43.51
2022-12-19T10:14:12.937Z,43.78
2022-12-19T10:16:39.699Z,43.33
2022-12-19T10:19:05.970Z,43.47
2022-12-19T10:22:07.410Z,43.36
2022-12-19T10:24:18.436Z,43.21
2022-12-19T10:26:44.696Z,43.65
2022-12-19T10:29:10.949Z,43.73
2022-12-19T10:31:38.112Z,43.50
2022-12-19T10:34:04.475Z,43.51
2022-12-19T10:36:55.984Z,43.11
2022-12-19T10:39:17.023Z,43.37
2022-12-19T10:41:44.201Z,43.48
2022-12-19T10:44:10.605Z,43.11
2022-12-19T10:46:36.895Z,42.70
2022-12-19T10:49:03.281Z,41.31
2022-12-19T10:51:29.538Z,43.08
2022-12-19T10:53:55.916Z,43.05
2022-12-19T10:56:22.207Z,44.19
2022-12-19T10:58:49.216Z,43.84
2022-12-19T11:01:15.588Z,43.63
2022-12-19T11:03:42.060Z,43.06
2022-12-19T11:06:08.321Z,42.72
2022-12-19T11:08:34.574Z,42.41
2022-12-19T11:12:12.606Z,41.95
2022-12-19T11:18:41.920Z,41.87
2022-12-19T11:21:34.960Z,41.52
2022-12-19T11:29:18.725Z,40.80
2022-12-19T11:29:37.681Z,41.80
2022-12-19T11:30:08.452Z,40.57
2022-12-19T11:30:46.939Z,41.44
2022-12-19T11:33:12.466Z,39.83
2022-12-19T11:35:38.773Z,38.12
2022-12-19T11:38:05.017Z,40.68
2022-12-19T11:40:31.250Z,40.32
2022-12-19T11:43:41.558Z,41.83
2022-12-19T11:45:43.702Z,41.77
2022-12-19T11:48:09.971Z,42.04
2022-12-19T11:50:36.292Z,42.20
2022-12-19T11:53:04.883Z,42.13
2022-12-19T11:55:33.322Z,41.39
2022-12-19T11:57:59.571Z,41.86
2022-12-19T12:00:25.799Z,42.15
2022-12-19T12:02:52.120Z,42.07
2022-12-19T12:05:18.405Z,42.16
2022-12-19T12:09:20.782Z,42.61
2022-12-19T12:15:37.915Z,42.41
2022-12-19T12:22:27.831Z,42.01
2022-12-19T12:26:15.900Z,42.45
2022-12-19T12:27:46.425Z,42.97
2022-12-19T12:28:29.676Z,42.77
2022-12-19T12:31:16.207Z,42.97
2022-12-19T12:31:48.511Z,42.84
2022-12-19T12:31:57.030Z,43.45
2022-12-19T12:35:31.715Z,43.15
2022-12-19T12:38:30.788Z,43.86
2022-12-19T12:40:57.515Z,44.33
2022-12-19T12:43:23.770Z,44.02
2022-12-19T12:45:50.115Z,43.99
2022-12-19T12:48:16.396Z,43.85
2022-12-19T12:50:42.699Z,44.23
2022-12-19T12:53:08.959Z,44.39
2022-12-19T12:55:35.312Z,44.19
2022-12-19T12:58:01.932Z,44.15
2022-12-19T13:00:28.257Z,43.79
2022-12-19T13:02:54.710Z,43.72
2022-12-19T13:05:21.224Z,44.15
2022-12-19T13:07:47.459Z,44.43
2022-12-19T13:10:13.729Z,44.44
2022-12-19T13:12:40.022Z,44.26
2022-12-19T13:15:06.282Z,43.98
2022-12-19T13:17:32.553Z,43.53
2022-12-19T13:19:58.852Z,43.53
2022-12-19T13:22:25.117Z,43.67
2022-12-19T13:24:51.363Z,45.14
2022-12-19T13:27:17.624Z,44.96
2022-12-19T13:29:43.885Z,44.89
2022-12-19T13:32:10.212Z,46.06
2022-12-19T13:34:36.496Z,45.56
2022-12-19T13:39:48.149Z,46.66
2022-12-19T13:40:09.075Z,46.25
2022-12-19T13:42:35.322Z,46.17
2022-12-19T13:45:04.376Z,45.19
2022-12-19T13:47:30.931Z,45.92
2022-12-19T13:49:57.191Z,44.03
2022-12-19T13:52:23.491Z,45.54
2022-12-19T13:54:49.783Z,46.47
2022-12-19T13:57:16.036Z,46.34
2022-12-19T13:59:59.226Z,46.66
2022-12-19T14:02:27.132Z,46.95
2022-12-19T14:04:53.511Z,47.11
2022-12-19T14:07:19.814Z,47.98
2022-12-19T14:11:28.349Z,49.57
2022-12-19T14:14:00.715Z,49.14
2022-12-19T14:15:18.841Z,49.17
2022-12-19T14:17:45.099Z,49.33
2022-12-19T14:20:54.330Z,50.18
2022-12-19T14:22:57.575Z,50.21
2022-12-19T14:26:48.110Z,49.35
2022-12-19T14:28:26.720Z,49.26
2022-12-19T14:30:55.544Z,48.62
2022-12-19T14:33:45.357Z,48.55
2022-12-19T14:36:14.653Z,47.53
2022-12-19T14:39:24.399Z,47.91
2022-12-19T14:41:31.012Z,48.99
2022-12-19T14:52:27.871Z,47.92
2022-12-19T14:53:17.636Z,47.27
2022-12-19T14:54:21.093Z,46.63
2022-12-19T14:54:30.493Z,47.42
2022-12-19T14:56:09.323Z,47.30
2022-12-19T14:58:51.208Z,46.96
2022-12-19T15:01:07.553Z,47.56
2022-12-19T15:03:22.005Z,47.01
2022-12-19T15:05:48.420Z,46.81
2022-12-19T15:08:15.682Z,46.69
2022-12-19T15:11:03.120Z,47.49
2022-12-19T15:14:56.994Z,47.62
2022-12-19T15:16:26.575Z,47.78
2022-12-19T15:18:53.062Z,47.33
2022-12-19T15:21:19.311Z,48.50
2022-12-19T15:23:45.631Z,48.78
2022-12-19T15:26:12.032Z,48.79
2022-12-19T15:28:38.260Z,49.59
2022-12-19T15:31:05.040Z,50.12
2022-12-19T15:33:31.642Z,51.42
2022-12-19T15:35:58.249Z,52.12
2022-12-19T15:38:24.597Z,52.57
2022-12-19T15:40:50.845Z,52.28
2022-12-19T15:43:44.859Z,53.32
2022-12-19T15:46:03.360Z,53.67
2022-12-19T15:48:29.800Z,54.87
2022-12-19T15:50:56.040Z,55.95
2022-12-19T15:53:32.785Z,54.64
2022-12-19T15:56:04.557Z,53.36
2022-12-19T15:58:30.826Z,53.37
2022-12-19T16:00:57.083Z,54.70
2022-12-19T16:03:25.099Z,54.62
2022-12-19T16:05:52.116Z,53.65
2022-12-19T16:08:18.748Z,54.75
2022-12-19T16:10:45.035Z,53.88
2022-12-19T16:13:11.292Z,54.38
2022-12-19T16:15:37.579Z,55.07
2022-12-19T16:18:03.836Z,55.08
2022-12-19T16:20:30.078Z,56.16
2022-12-19T16:22:56.373Z,55.82
2022-12-19T16:25:22.661Z,55.45
2022-12-19T16:27:48.934Z,55.35
2022-12-19T16:30:18.564Z,55.45
2022-12-19T16:32:45.344Z,55.04
2022-12-19T16:35:11.670Z,55.19
2022-12-19T16:37:37.951Z,55.22
2022-12-19T16:40:04.211Z,55.06
2022-12-19T16:42:30.487Z,54.62
2022-12-19T16:44:56.740Z,54.36
2022-12-19T16:47:23.185Z,53.67
2022-12-19T16:49:49.483Z,53.09
2022-12-19T16:52:15.752Z,52.73
2022-12-19T16:54:42.145Z,53.57
2022-12-19T16:57:08.763Z,54.10
2022-12-19T16:59:35.042Z,54.10
2022-12-19T17:02:01.381Z,55.07
2022-12-19T17:04:27.773Z,55.53
2022-12-19T17:06:54.009Z,55.32
2022-12-19T17:09:20.337Z,55.83
2022-12-19T17:11:46.703Z,55.81
2022-12-19T17:14:12.935Z,56.05
2022-12-19T17:16:39.341Z,55.81
2022-12-19T17:19:05.661Z,55.74
2022-12-19T17:21:31.906Z,54.80
2022-12-19T17:23:58.172Z,54.77
2022-12-19T17:26:24.504Z,54.67
2022-12-19T17:28:50.740Z,54.84
2022-12-19T17:31:17.147Z,54.99
2022-12-19T17:33:43.475Z,54.66
2022-12-19T17:36:09.743Z,54.94
2022-12-19T17:38:36.069Z,53.59
2022-12-19T17:41:02.369Z,53.50
2022-12-19T17:43:29.097Z,53.40
2022-12-19T17:45:55.448Z,54.07
2022-12-19T17:48:22.782Z,54.08
2022-12-19T17:50:49.157Z,53.82
2022-12-19T17:53:15.435Z,53.51
2022-12-19T17:55:41.689Z,52.88
2022-12-19T17:58:07.987Z,53.25
2022-12-19T18:00:34.230Z,53.40
2022-12-19T18:03:00.691Z,54.35
2022-12-19T18:05:27.103Z,54.82
2022-12-19T18:07:53.380Z,54.75
2022-12-19T18:10:19.679Z,54.39
2022-12-19T18:12:45.929Z,56.04
2022-12-19T18:15:12.160Z,55.88
2022-12-19T18:17:38.430Z,55.43
2022-12-19T18:20:04.676Z,56.04
2022-12-19T18:22:30.910Z,57.01
2022-12-19T18:24:57.180Z,56.17
2022-12-19T18:27:23.527Z,55.28
2022-12-19T18:29:49.883Z,55.23
2022-12-19T18:32:16.240Z,55.49
2022-12-19T18:34:42.495Z,55.26
2022-12-19T18:37:08.921Z,55.65
2022-12-19T18:39:35.215Z,55.55
2022-12-19T18:42:01.463Z,54.92
2022-12-19T18:44:27.961Z,54.84
2022-12-19T18:46:54.252Z,54.93
2022-12-19T18:49:20.519Z,55.42
2022-12-19T18:51:46.792Z,55.60
2022-12-19T18:54:13.078Z,55.96
2022-12-19T18:56:39.335Z,55.08
2022-12-19T18:59:05.567Z,54.52
2022-12-19T19:01:31.895Z,55.07
2022-12-19T19:03:58.354Z,54.85
2022-12-19T19:06:24.672Z,55.23
2022-12-19T19:08:50.974Z,55.98
2022-12-19T19:11:17.216Z,57.37
2022-12-19T19:13:43.570Z,56.34
2022-12-19T19:16:09.861Z,56.57
2022-12-19T19:18:36.111Z,57.00
2022-12-19T19:21:02.387Z,56.71
2022-12-19T19:23:28.704Z,57.16
2022-12-19T19:25:54.978Z,57.29
2022-12-19T19:28:21.228Z,56.48
2022-12-19T19:30:47.525Z,55.91
2022-12-19T19:33:14.409Z,55.13
2022-12-19T19:35:40.656Z,55.59
2022-12-19T19:38:06.942Z,55.51
2022-12-19T19:40:33.179Z,55.42
2022-12-19T19:42:59.412Z,55.43
2022-12-19T19:45:25.730Z,55.36
2022-12-19T19:47:52.031Z,55.52
2022-12-19T19:50:18.297Z,55.79
2022-12-19T19:52:44.537Z,56.78
2022-12-19T19:55:10.803Z,57.44
2022-12-19T19:57:37.056Z,56.51
2022-12-19T20:00:03.303Z,57.17
2022-12-19T20:02:29.762Z,56.80
2022-12-19T20:04:56.151Z,57.38
2022-12-19T20:07:22.468Z,57.07
2022-12-19T20:09:48.759Z,56.82
2022-12-19T20:12:15.023Z,57.91
2022-12-19T20:14:41.290Z,57.83
2022-12-19T20:17:07.527Z,56.65
2022-12-19T20:19:33.754Z,57.28
2022-12-19T20:22:00.002Z,57.18
2022-12-19T20:24:26.259Z,57.22
2022-12-19T20:26:52.500Z,57.08
2022-12-19T20:29:18.752Z,56.33
2022-12-19T20:31:45.057Z,56.01
2022-12-19T20:34:11.333Z,56.03
2022-12-19T20:36:37.619Z,55.69
2022-12-19T20:39:03.886Z,55.92
2022-12-19T20:41:30.104Z,56.02
2022-12-19T20:43:56.413Z,56.11
2022-12-19T20:46:22.693Z,55.86
2022-12-19T20:48:48.991Z,55.85
2022-12-19T20:51:15.287Z,55.56
2022-12-19T20:53:41.585Z,55.75
2022-12-19T20:56:07.897Z,55.80
2022-12-19T20:58:34.172Z,55.68
2022-12-19T21:01:00.427Z,55.80
2022-12-19T21:03:28.844Z,55.72
2022-12-19T21:05:55.534Z,55.69
2022-12-19T21:08:21.787Z,55.71
2022-12-19T21:10:48.078Z,56.34
2022-12-19T21:13:14.337Z,56.32
2022-12-19T21:15:40.598Z,55.66
2022-12-19T21:18:06.879Z,55.35
2022-12-19T21:20:34.462Z,56.32
2022-12-19T21:23:00.945Z,57.15
2022-12-19T21:25:27.189Z,56.69
2022-12-19T21:27:53.525Z,56.41
2022-12-19T21:30:19.806Z,56.49
2022-12-19T21:32:46.038Z,56.33
2022-12-19T21:35:12.281Z,56.56
2022-12-19T21:37:43.532Z,56.61
2022-12-19T21:40:10.151Z,56.80
2022-12-19T21:42:36.391Z,55.87
2022-12-19T21:45:02.710Z,56.12
2022-12-19T21:47:28.976Z,55.83
2022-12-19T21:49:55.218Z,55.87
2022-12-19T21:52:21.546Z,55.52
2022-12-19T21:54:47.788Z,55.56
2022-12-19T21:57:14.097Z,55.74
2022-12-19T21:59:40.506Z,55.30
2022-12-19T22:02:06.958Z,55.16
2022-12-19T22:04:33.265Z,55.34
2022-12-19T22:06:59.503Z,57.16
2022-12-19T22:09:25.816Z,59.17
2022-12-19T22:11:52.241Z,60.27
2022-12-19T22:14:18.478Z,59.00
2022-12-19T22:16:44.968Z,58.68
2022-12-19T22:19:11.317Z,58.14
2022-12-19T22:21:37.596Z,57.85
2022-12-19T22:24:03.876Z,57.27
2022-12-19T22:26:30.152Z,57.33
2022-12-19T22:28:56.405Z,57.70
2022-12-19T22:31:23.037Z,57.55
2022-12-19T22:33:49.326Z,57.36
2022-12-19T22:36:17.481Z,56.90
2022-12-19T22:38:46.001Z,56.69
2022-12-19T22:41:12.272Z,56.88
2022-12-19T22:43:38.527Z,57.05
2022-12-19T22:46:04.828Z,56.46
2022-12-19T22:48:31.239Z,56.00
2022-12-19T22:50:57.469Z,55.78
2022-12-19T22:53:23.809Z,55.96
2022-12-19T22:55:50.116Z,55.66
2022-12-19T22:58:16.390Z,54.83
2022-12-19T23:00:42.633Z,55.24
2022-12-19T23:03:08.983Z,55.17
2022-12-19T23:05:35.361Z,55.69
2022-12-19T23:08:01.596Z,55.79
2022-12-19T23:10:27.847Z,57.24
2022-12-19T23:12:54.105Z,56.76
2022-12-19T23:15:20.361Z,57.47
2022-12-19T23:17:46.628Z,57.66
2022-12-19T23:20:12.872Z,58.35
2022-12-19T23:22:39.184Z,57.00
2022-12-19T23:25:05.608Z,57.78
2022-12-19T23:27:31.868Z,60.33
2022-12-19T23:29:58.841Z,59.00
2022-12-19T23:32:25.173Z,58.41
2022-12-19T23:34:51.651Z,57.98
2022-12-19T23:37:17.937Z,59.23
2022-12-19T23:39:44.195Z,61.13
2022-12-19T23:42:10.481Z,59.73
2022-12-19T23:44:36.734Z,59.05
2022-12-19T23:47:04.063Z,58.22
2022-12-19T23:49:30.572Z,57.74
2022-12-19T23:51:56.812Z,57.90
2022-12-19T23:54:23.119Z,57.98
2022-12-19T23:56:49.516Z,57.83
2022-12-19T23:59:15.774Z,58.42
